Norfolk, Virginia
Traffic Map
Current Weather Conditions
Norfolk, Virginia
Clear
Clear
26°
Feels Like: 27°
Wind Chill: 26° Ceiling: Unl
Heat Index: 27° Visibility: 10mi
Dew Point: 20° Wind: 9mph
Humidity: 69% Direction: 330° (NNW)
Pressure: 29.93in Gusts: 0mph
Raw Report DataKORF 281251Z AUTO 33008KT 10SM CLR 26/20 A2993 RMK AO2 SLP136 T02610200 TSNO
Traffic Incident Summary
Active as of:
Severity:
Category:
InformationThere was an issue retrieving the traffic information for this location. Please try a different location or try again shortly.
Advertisements
Track Severe Weather on mobile